Alamota, Kansas
Current Conditions -  °F | °C
As of 5:54 PM on Sunday 25 Jan 2015 (Local Time) from KGCK Reporting Station
Clear Clear  
Wind Chill: 44°   Ceiling: Unl
Heat Index: 48°   Visibility: 10mi
Dew Point: 20°   Wind: 8mph
Humidity: 33%   Direction: 10°N
Pressure: 30.11"   Gusts: NA
Location:  38.4812°N, 100.393°W
Report Text: KGCK 252354Z 01007KT 10SM CLR 09/M07 A3011 RMK AO2 SLP198 T00891067 10144 20089 53009
Loading
Personal Weather Stations






























Interactive Weather Map New forecast layout! Learn more

10-Day Weather Forecast

Advertisements
Track Severe Weather on mobile